sensor_id;sensor_type;location;lat;lon;timestamp;pressure;altitude;pressure_sealevel;temperature;humidity
36254;BME280;22291;52.250;21.228;2023-05-25T00:01:42;100606.43;;;15.00;73.17
36254;BME280;22291;52.250;21.228;2023-05-25T00:04:11;100606.52;;;14.98;73.11
36254;BME280;22291;52.250;21.228;2023-05-25T00:06:39;100597.42;;;14.93;73.48
36254;BME280;22291;52.250;21.228;2023-05-25T00:09:07;100599.69;;;14.91;73.44
36254;BME280;22291;52.250;21.228;2023-05-25T00:11:33;100600.34;;;14.88;73.53
36254;BME280;22291;52.250;21.228;2023-05-25T00:13:59;100596.33;;;14.86;73.61
36254;BME280;22291;52.250;21.228;2023-05-25T00:16:25;100601.32;;;14.84;73.68
36254;BME280;22291;52.250;21.228;2023-05-25T00:18:51;100603.58;;;14.82;73.60
36254;BME280;22291;52.250;21.228;2023-05-25T00:21:19;100604.23;;;14.79;74.03
36254;BME280;22291;52.250;21.228;2023-05-25T00:23:45;100604.67;;;14.74;74.18
36254;BME280;22291;52.250;21.228;2023-05-25T00:26:12;100608.38;;;14.70;74.03
36254;BME280;22291;52.250;21.228;2023-05-25T00:28:38;100609.35;;;14.65;74.60
36254;BME280;22291;52.250;21.228;2023-05-25T00:31:04;100614.98;;;14.60;74.69
36254;BME280;22291;52.250;21.228;2023-05-25T00:33:32;100618.90;;;14.56;74.97
36254;BME280;22291;52.250;21.228;2023-05-25T00:35:58;100627.14;;;14.54;75.04
36254;BME280;22291;52.250;21.228;2023-05-25T00:38:24;100618.62;;;14.49;75.26
36254;BME280;22291;52.250;21.228;2023-05-25T00:40:55;100619.52;;;14.47;75.00
36254;BME280;22291;52.250;21.228;2023-05-25T00:43:22;100623.67;;;14.45;75.48
36254;BME280;22291;52.250;21.228;2023-05-25T00:45:50;100619.70;;;14.42;75.67
36254;BME280;22291;52.250;21.228;2023-05-25T00:48:18;100620.56;;;14.40;75.58
36254;BME280;22291;52.250;21.228;2023-05-25T00:50:44;100613.86;;;14.37;76.16
36254;BME280;22291;52.250;21.228;2023-05-25T00:53:13;100618.12;;;14.32;75.88
36254;BME280;22291;52.250;21.228;2023-05-25T00:55:56;100616.30;;;14.30;75.74
36254;BME280;22291;52.250;21.228;2023-05-25T00:58:30;100613.98;;;14.26;76.07
36254;BME280;22291;52.250;21.228;2023-05-25T01:01:00;100620.95;;;14.21;76.38
36254;BME280;22291;52.250;21.228;2023-05-25T01:03:30;100618.41;;;14.16;76.19
36254;BME280;22291;52.250;21.228;2023-05-25T01:06:00;100617.70;;;14.13;76.17
36254;BME280;22291;52.250;21.228;2023-05-25T01:08:30;100623.23;;;14.10;76.43
36254;BME280;22291;52.250;21.228;2023-05-25T01:11:00;100625.24;;;14.07;76.93
36254;BME280;22291;52.250;21.228;2023-05-25T01:13:31;100629.75;;;14.03;76.84
36254;BME280;22291;52.250;21.228;2023-05-25T01:16:02;100624.63;;;14.01;76.97
36254;BME280;22291;52.250;21.228;2023-05-25T01:18:30;100627.20;;;13.98;77.32
36254;BME280;22291;52.250;21.228;2023-05-25T01:21:04;100627.84;;;13.95;77.30
36254;BME280;22291;52.250;21.228;2023-05-25T01:23:36;100629.73;;;13.94;77.66
36254;BME280;22291;52.250;21.228;2023-05-25T01:26:11;100633.28;;;13.95;77.71
36254;BME280;22291;52.250;21.228;2023-05-25T01:28:42;100634.86;;;13.96;77.86
36254;BME280;22291;52.250;21.228;2023-05-25T01:31:13;100633.50;;;13.96;78.06
36254;BME280;22291;52.250;21.228;2023-05-25T01:33:42;100638.14;;;13.95;78.40
36254;BME280;22291;52.250;21.228;2023-05-25T01:36:10;100637.67;;;13.93;78.42
36254;BME280;22291;52.250;21.228;2023-05-25T01:38:36;100634.86;;;13.96;78.73
36254;BME280;22291;52.250;21.228;2023-05-25T01:41:04;100629.98;;;13.95;78.96
36254;BME280;22291;52.250;21.228;2023-05-25T01:43:30;100633.28;;;13.95;78.92
36254;BME280;22291;52.250;21.228;2023-05-25T01:46:05;100634.86;;;13.96;79.09
36254;BME280;22291;52.250;21.228;2023-05-25T01:57:14;100635.34;;;13.89;79.74
36254;BME280;22291;52.250;21.228;2023-05-25T01:59:43;100632.63;;;13.89;80.10
36254;BME280;22291;52.250;21.228;2023-05-25T02:02:14;100625.51;;;13.91;80.25
36254;BME280;22291;52.250;21.228;2023-05-25T02:04:46;100627.37;;;13.93;80.50
36254;BME280;22291;52.250;21.228;2023-05-25T02:07:12;100632.80;;;13.93;80.16
36254;BME280;22291;52.250;21.228;2023-05-25T02:09:38;100630.78;;;13.96;80.51
36254;BME280;22291;52.250;21.228;2023-05-25T02:12:05;100638.39;;;13.96;80.24
36254;BME280;22291;52.250;21.228;2023-05-25T02:14:31;100631.81;;;13.97;80.23
36254;BME280;22291;52.250;21.228;2023-05-25T02:16:58;100632.86;;;13.99;80.44
36254;BME280;22291;52.250;21.228;2023-05-25T02:19:26;100625.98;;;14.01;80.80
36254;BME280;22291;52.250;21.228;2023-05-25T02:21:54;100632.69;;;14.04;80.61
36254;BME280;22291;52.250;21.228;2023-05-25T02:24:24;100641.88;;;14.06;80.72
36254;BME280;22291;52.250;21.228;2023-05-25T02:26:51;100635.33;;;14.07;80.56
36254;BME280;22291;52.250;21.228;2023-05-25T02:29:17;100634.13;;;14.10;81.18
36254;BME280;22291;52.250;21.228;2023-05-25T02:31:43;100634.02;;;14.13;80.92
36254;BME280;22291;52.250;21.228;2023-05-25T02:34:11;100635.52;;;14.16;80.92
36254;BME280;22291;52.250;21.228;2023-05-25T02:36:40;100637.60;;;14.19;80.80
36254;BME280;22291;52.250;21.228;2023-05-25T02:39:10;100636.39;;;14.23;80.89
36254;BME280;22291;52.250;21.228;2023-05-25T02:41:38;100635.52;;;14.25;81.00
36254;BME280;22291;52.250;21.228;2023-05-25T02:44:04;100636.88;;;14.25;80.86
36254;BME280;22291;52.250;21.228;2023-05-25T02:46:30;100642.47;;;14.29;80.82
36254;BME280;22291;52.250;21.228;2023-05-25T02:48:59;100640.54;;;14.29;80.69
36254;BME280;22291;52.250;21.228;2023-05-25T02:51:27;100646.91;;;14.33;81.10
36254;BME280;22291;52.250;21.228;2023-05-25T02:53:53;100649.31;;;14.35;80.88
36254;BME280;22291;52.250;21.228;2023-05-25T02:56:19;100647.63;;;14.36;80.81
36254;BME280;22291;52.250;21.228;2023-05-25T02:58:49;100649.81;;;14.37;80.71
36254;BME280;22291;52.250;21.228;2023-05-25T03:01:16;100647.77;;;14.40;80.83
36254;BME280;22291;52.250;21.228;2023-05-25T03:03:46;100649.84;;;14.43;80.89
36254;BME280;22291;52.250;21.228;2023-05-25T03:06:14;100647.70;;;14.43;80.71
36254;BME280;22291;52.250;21.228;2023-05-25T03:08:40;100645.69;;;14.46;80.92
36254;BME280;22291;52.250;21.228;2023-05-25T03:11:06;100646.48;;;14.46;80.83
36254;BME280;22291;52.250;21.228;2023-05-25T03:13:34;100649.45;;;14.47;80.89
36254;BME280;22291;52.250;21.228;2023-05-25T03:16:00;100651.60;;;14.48;80.65
36254;BME280;22291;52.250;21.228;2023-05-25T03:18:27;100653.67;;;14.51;80.92
36254;BME280;22291;52.250;21.228;2023-05-25T03:20:53;100652.31;;;14.51;80.67
36254;BME280;22291;52.250;21.228;2023-05-25T03:23:19;100653.57;;;14.53;80.69
36254;BME280;22291;52.250;21.228;2023-05-25T03:25:47;100656.68;;;14.58;80.72
36254;BME280;22291;52.250;21.228;2023-05-25T03:28:15;100664.45;;;14.62;80.88
36254;BME280;22291;52.250;21.228;2023-05-25T03:30:41;100671.75;;;14.64;80.67
36254;BME280;22291;52.250;21.228;2023-05-25T03:33:08;100674.80;;;14.63;80.43
36254;BME280;22291;52.250;21.228;2023-05-25T03:35:34;100681.92;;;14.61;80.62
36254;BME280;22291;52.250;21.228;2023-05-25T03:38:00;100686.62;;;14.58;80.21
36254;BME280;22291;52.250;21.228;2023-05-25T03:40:26;100696.66;;;14.51;80.38
36254;BME280;22291;52.250;21.228;2023-05-25T03:42:52;100693.47;;;14.49;80.53
36254;BME280;22291;52.250;21.228;2023-05-25T03:45:18;100698.66;;;14.48;80.73
36254;BME280;22291;52.250;21.228;2023-05-25T03:47:46;100697.08;;;14.47;80.90
36254;BME280;22291;52.250;21.228;2023-05-25T03:50:12;100698.09;;;14.49;80.99
36254;BME280;22291;52.250;21.228;2023-05-25T03:52:38;100695.86;;;14.51;81.06
36254;BME280;22291;52.250;21.228;2023-05-25T03:55:07;100694.18;;;14.52;80.91
36254;BME280;22291;52.250;21.228;2023-05-25T03:57:33;100687.70;;;14.51;80.93
36254;BME280;22291;52.250;21.228;2023-05-25T03:59:59;100688.56;;;14.49;80.92
36254;BME280;22291;52.250;21.228;2023-05-25T04:02:26;100680.75;;;14.47;80.90
36254;BME280;22291;52.250;21.228;2023-05-25T04:04:52;100683.69;;;14.48;81.02
36254;BME280;22291;52.250;21.228;2023-05-25T04:07:20;100690.96;;;14.50;81.17
36254;BME280;22291;52.250;21.228;2023-05-25T04:09:46;100686.02;;;14.52;81.22
36254;BME280;22291;52.250;21.228;2023-05-25T04:12:12;100688.38;;;14.54;81.35
36254;BME280;22291;52.250;21.228;2023-05-25T04:14:38;100692.06;;;14.58;81.36
36254;BME280;22291;52.250;21.228;2023-05-25T04:17:04;100696.72;;;14.57;81.35
36254;BME280;22291;52.250;21.228;2023-05-25T04:19:31;100701.45;;;14.63;81.50
36254;BME280;22291;52.250;21.228;2023-05-25T04:21:58;100699.19;;;14.65;81.38
36254;BME280;22291;52.250;21.228;2023-05-25T04:24:24;100689.77;;;14.63;80.97
36254;BME280;22291;52.250;21.228;2023-05-25T04:26:51;100692.95;;;14.65;81.42
36254;BME280;22291;52.250;21.228;2023-05-25T04:29:17;100691.41;;;14.70;81.39
36254;BME280;22291;52.250;21.228;2023-05-25T04:31:43;100692.77;;;14.70;81.31
36254;BME280;22291;52.250;21.228;2023-05-25T04:34:11;100701.66;;;14.73;81.50
36254;BME280;22291;52.250;21.228;2023-05-25T04:36:41;100700.30;;;14.73;81.24
36254;BME280;22291;52.250;21.228;2023-05-25T04:39:08;100693.30;;;14.78;81.56
36254;BME280;22291;52.250;21.228;2023-05-25T04:41:36;100692.41;;;14.80;81.37
36254;BME280;22291;52.250;21.228;2023-05-25T04:44:02;100693.52;;;14.79;81.07
36254;BME280;22291;52.250;21.228;2023-05-25T04:46:28;100700.66;;;14.78;80.83
36254;BME280;22291;52.250;21.228;2023-05-25T04:48:57;100698.75;;;14.78;81.16
36254;BME280;22291;52.250;21.228;2023-05-25T04:51:23;100704.20;;;14.78;80.86
36254;BME280;22291;52.250;21.228;2023-05-25T04:53:49;100700.98;;;14.76;80.82
36254;BME280;22291;52.250;21.228;2023-05-25T04:56:17;100704.38;;;14.73;80.81
36254;BME280;22291;52.250;21.228;2023-05-25T04:58:43;100710.94;;;14.72;80.92
36254;BME280;22291;52.250;21.228;2023-05-25T05:01:09;100709.11;;;14.70;80.92
36254;BME280;22291;52.250;21.228;2023-05-25T05:03:35;100718.17;;;14.68;80.83
36254;BME280;22291;52.250;21.228;2023-05-25T05:06:02;100721.22;;;14.66;81.30
36254;BME280;22291;52.250;21.228;2023-05-25T05:08:28;100719.86;;;14.66;81.23
36254;BME280;22291;52.250;21.228;2023-05-25T05:10:54;100725.66;;;14.71;81.35
36254;BME280;22291;52.250;21.228;2023-05-25T05:13:20;100723.77;;;14.71;81.70
36254;BME280;22291;52.250;21.228;2023-05-25T05:15:46;100720.03;;;14.76;81.45
36254;BME280;22291;52.250;21.228;2023-05-25T05:18:12;100720.42;;;14.81;81.57
36254;BME280;22291;52.250;21.228;2023-05-25T05:20:39;100722.83;;;14.82;81.48
36254;BME280;22291;52.250;21.228;2023-05-25T05:23:06;100723.94;;;14.81;81.15
36254;BME280;22291;52.250;21.228;2023-05-25T05:25:33;100728.37;;;14.80;80.99
36254;BME280;22291;52.250;21.228;2023-05-25T05:28:01;100726.77;;;14.79;81.14
36254;BME280;22291;52.250;21.228;2023-05-25T05:30:30;100745.02;;;15.02;81.43
36254;BME280;22291;52.250;21.228;2023-05-25T05:32:56;100745.02;;;15.02;81.43
36254;BME280;22291;52.250;21.228;2023-05-25T05:35:22;100726.08;;;14.90;81.07
36254;BME280;22291;52.250;21.228;2023-05-25T05:37:48;100726.33;;;14.91;80.90
36254;BME280;22291;52.250;21.228;2023-05-25T05:40:15;100722.70;;;14.93;81.05
36254;BME280;22291;52.250;21.228;2023-05-25T05:42:41;100729.98;;;14.96;80.91
36254;BME280;22291;52.250;21.228;2023-05-25T05:45:09;100733.74;;;14.97;81.01
36254;BME280;22291;52.250;21.228;2023-05-25T05:47:37;100741.41;;;15.04;81.16
36254;BME280;22291;52.250;21.228;2023-05-25T05:50:05;100742.94;;;15.13;81.49
36254;BME280;22291;52.250;21.228;2023-05-25T05:52:32;100749.94;;;15.23;81.29
36254;BME280;22291;52.250;21.228;2023-05-25T05:54:58;100744.77;;;15.30;81.11
36254;BME280;22291;52.250;21.228;2023-05-25T05:57:25;100748.47;;;15.41;80.96
36254;BME280;22291;52.250;21.228;2023-05-25T05:59:54;100752.98;;;15.52;81.02
36254;BME280;22291;52.250;21.228;2023-05-25T06:02:20;100753.72;;;15.61;80.62
36254;BME280;22291;52.250;21.228;2023-05-25T06:04:46;100761.38;;;15.67;79.91
36254;BME280;22291;52.250;21.228;2023-05-25T06:07:12;100761.28;;;15.70;79.67
36254;BME280;22291;52.250;21.228;2023-05-25T06:09:39;100771.38;;;15.78;79.67
36254;BME280;22291;52.250;21.228;2023-05-25T06:12:06;100764.56;;;15.84;79.51
36254;BME280;22291;52.250;21.228;2023-05-25T06:14:33;100765.97;;;15.91;79.26
36254;BME280;22291;52.250;21.228;2023-05-25T06:17:00;100768.17;;;15.97;79.00
36254;BME280;22291;52.250;21.228;2023-05-25T06:19:26;100773.64;;;16.03;78.95
36254;BME280;22291;52.250;21.228;2023-05-25T06:21:52;100775.04;;;16.10;78.46
36254;BME280;22291;52.250;21.228;2023-05-25T06:24:18;100780.38;;;16.12;78.17
36254;BME280;22291;52.250;21.228;2023-05-25T06:26:45;100782.23;;;16.14;77.88
36254;BME280;22291;52.250;21.228;2023-05-25T06:29:11;100785.09;;;16.18;78.05
36254;BME280;22291;52.250;21.228;2023-05-25T06:31:38;100789.19;;;16.24;77.99
36254;BME280;22291;52.250;21.228;2023-05-25T06:34:04;100791.62;;;16.32;77.75
36254;BME280;22291;52.250;21.228;2023-05-25T06:36:30;100791.65;;;16.38;77.77
36254;BME280;22291;52.250;21.228;2023-05-25T06:38:57;100791.89;;;16.45;77.46
36254;BME280;22291;52.250;21.228;2023-05-25T06:41:23;100791.68;;;16.50;77.19
36254;BME280;22291;52.250;21.228;2023-05-25T06:43:49;100794.87;;;16.52;76.65
36254;BME280;22291;52.250;21.228;2023-05-25T06:46:15;100788.04;;;16.52;76.14
36254;BME280;22291;52.250;21.228;2023-05-25T06:48:43;100787.13;;;16.48;75.77
36254;BME280;22291;52.250;21.228;2023-05-25T06:51:10;100788.50;;;16.48;76.01
36254;BME280;22291;52.250;21.228;2023-05-25T06:53:37;100792.47;;;16.51;76.04
36254;BME280;22291;52.250;21.228;2023-05-25T06:56:04;100789.53;;;16.56;76.31
36254;BME280;22291;52.250;21.228;2023-05-25T06:58:31;100785.45;;;16.62;76.32
36254;BME280;22291;52.250;21.228;2023-05-25T07:00:57;100793.31;;;16.70;76.11
36254;BME280;22291;52.250;21.228;2023-05-25T07:03:25;100791.52;;;16.74;75.58
36254;BME280;22291;52.250;21.228;2023-05-25T07:05:52;100794.37;;;16.77;75.58
36254;BME280;22291;52.250;21.228;2023-05-25T07:08:18;100793.27;;;16.85;75.85
36254;BME280;22291;52.250;21.228;2023-05-25T07:10:44;100792.38;;;16.93;75.57
36254;BME280;22291;52.250;21.228;2023-05-25T07:13:10;100793.97;;;17.00;75.42
36254;BME280;22291;52.250;21.228;2023-05-25T07:15:37;100791.80;;;17.06;75.16
36254;BME280;22291;52.250;21.228;2023-05-25T07:18:03;100791.12;;;17.09;74.52
36254;BME280;22291;52.250;21.228;2023-05-25T07:20:29;100792.39;;;17.11;74.30
36254;BME280;22291;52.250;21.228;2023-05-25T07:22:56;100787.47;;;17.11;73.81
36254;BME280;22291;52.250;21.228;2023-05-25T07:25:22;100788.95;;;17.14;74.18
36254;BME280;22291;52.250;21.228;2023-05-25T07:27:48;100789.87;;;17.18;74.00
36254;BME280;22291;52.250;21.228;2023-05-25T07:30:17;100786.36;;;17.18;73.69
36254;BME280;22291;52.250;21.228;2023-05-25T07:32:43;100788.63;;;17.22;73.69
36254;BME280;22291;52.250;21.228;2023-05-25T07:35:09;100784.06;;;17.32;73.96
36254;BME280;22291;52.250;21.228;2023-05-25T07:37:35;100784.16;;;17.48;74.31
36254;BME280;22291;52.250;21.228;2023-05-25T07:40:02;100779.47;;;17.61;72.96
36254;BME280;22291;52.250;21.228;2023-05-25T07:42:29;100784.16;;;17.61;72.65
36254;BME280;22291;52.250;21.228;2023-05-25T07:44:57;100787.78;;;17.71;72.32
36254;BME280;22291;52.250;21.228;2023-05-25T07:47:23;100788.67;;;17.69;72.18
36254;BME280;22291;52.250;21.228;2023-05-25T07:49:49;100788.44;;;17.80;72.79
36254;BME280;22291;52.250;21.228;2023-05-25T07:52:15;100792.08;;;17.97;73.07
36254;BME280;22291;52.250;21.228;2023-05-25T07:54:44;100785.87;;;18.06;71.65
36254;BME280;22291;52.250;21.228;2023-05-25T07:57:10;100787.78;;;18.11;71.85
36254;BME280;22291;52.250;21.228;2023-05-25T07:59:37;100787.17;;;18.24;71.84
36254;BME280;22291;52.250;21.228;2023-05-25T08:02:03;100778.95;;;18.31;70.58
36254;BME280;22291;52.250;21.228;2023-05-25T08:04:30;100775.48;;;18.34;70.95
36254;BME280;22291;52.250;21.228;2023-05-25T08:06:56;100774.95;;;18.50;71.29
36254;BME280;22291;52.250;21.228;2023-05-25T08:09:22;100779.22;;;18.63;69.93
36254;BME280;22291;52.250;21.228;2023-05-25T08:11:49;100780.61;;;18.57;69.26
36254;BME280;22291;52.250;21.228;2023-05-25T08:14:15;100781.17;;;18.63;69.49
36254;BME280;22291;52.250;21.228;2023-05-25T08:16:42;100789.80;;;18.71;69.06
36254;BME280;22291;52.250;21.228;2023-05-25T08:19:08;100784.61;;;18.76;69.43
36254;BME280;22291;52.250;21.228;2023-05-25T08:21:34;100796.42;;;18.92;69.80
36254;BME280;22291;52.250;21.228;2023-05-25T08:24:02;100791.16;;;19.09;69.49
36254;BME280;22291;52.250;21.228;2023-05-25T08:26:29;100790.00;;;19.26;69.11
36254;BME280;22291;52.250;21.228;2023-05-25T08:28:56;100785.81;;;19.32;67.83
36254;BME280;22291;52.250;21.228;2023-05-25T08:31:22;100785.77;;;19.38;67.77
36254;BME280;22291;52.250;21.228;2023-05-25T08:33:48;100786.23;;;19.50;67.63
36254;BME280;22291;52.250;21.228;2023-05-25T08:36:15;100784.73;;;19.63;67.12
36254;BME280;22291;52.250;21.228;2023-05-25T08:38:41;100777.87;;;19.78;67.67
36254;BME280;22291;52.250;21.228;2023-05-25T08:41:07;100783.13;;;20.07;67.64
36254;BME280;22291;52.250;21.228;2023-05-25T08:43:34;100789.05;;;20.28;67.04
36254;BME280;22291;52.250;21.228;2023-05-25T08:46:05;100782.51;;;20.46;66.64
36254;BME280;22291;52.250;21.228;2023-05-25T08:48:34;100784.08;;;20.67;65.62
36254;BME280;22291;52.250;21.228;2023-05-25T08:51:07;100786.87;;;20.80;65.18
36254;BME280;22291;52.250;21.228;2023-05-25T08:53:36;100787.83;;;21.01;64.73
36254;BME280;22291;52.250;21.228;2023-05-25T08:56:09;100785.30;;;21.29;64.93
36254;BME280;22291;52.250;21.228;2023-05-25T08:58:49;100788.55;;;21.61;64.39
36254;BME280;22291;52.250;21.228;2023-05-25T09:01:22;100784.69;;;21.96;63.79
36254;BME280;22291;52.250;21.228;2023-05-25T09:03:54;100784.27;;;22.28;62.86
36254;BME280;22291;52.250;21.228;2023-05-25T09:06:23;100784.88;;;22.48;61.70
36254;BME280;22291;52.250;21.228;2023-05-25T09:08:52;100778.30;;;22.60;60.97
36254;BME280;22291;52.250;21.228;2023-05-25T09:11:20;100784.74;;;22.75;59.67
36254;BME280;22291;52.250;21.228;2023-05-25T09:13:47;100782.52;;;22.71;59.19
36254;BME280;22291;52.250;21.228;2023-05-25T09:16:15;100782.67;;;22.85;58.89
36254;BME280;22291;52.250;21.228;2023-05-25T09:18:43;100785.18;;;22.81;58.13
36254;BME280;22291;52.250;21.228;2023-05-25T09:21:10;100783.23;;;22.85;58.00
36254;BME280;22291;52.250;21.228;2023-05-25T09:23:36;100789.61;;;22.92;57.68
36254;BME280;22291;52.250;21.228;2023-05-25T09:26:04;100794.56;;;22.97;57.88
36254;BME280;22291;52.250;21.228;2023-05-25T09:28:31;100790.98;;;23.13;58.26
36254;BME280;22291;52.250;21.228;2023-05-25T09:30:57;100786.28;;;23.45;58.36
36254;BME280;22291;52.250;21.228;2023-05-25T09:33:24;100792.16;;;24.17;58.65
36254;BME280;22291;52.250;21.228;2023-05-25T09:35:52;100790.13;;;24.81;56.18
36254;BME280;22291;52.250;21.228;2023-05-25T09:38:21;100784.98;;;24.90;54.69
36254;BME280;22291;52.250;21.228;2023-05-25T09:40:49;100787.95;;;25.02;54.23
36254;BME280;22291;52.250;21.228;2023-05-25T09:43:16;100786.77;;;25.32;54.49
36254;BME280;22291;52.250;21.228;2023-05-25T09:45:43;100783.22;;;25.94;53.68
36254;BME280;22291;52.250;21.228;2023-05-25T09:48:10;100781.84;;;26.34;52.71
36254;BME280;22291;52.250;21.228;2023-05-25T09:50:37;100786.50;;;26.78;51.88
36254;BME280;22291;52.250;21.228;2023-05-25T09:53:03;100787.20;;;27.38;51.04
36254;BME280;22291;52.250;21.228;2023-05-25T09:55:31;100781.84;;;27.92;50.21
36254;BME280;22291;52.250;21.228;2023-05-25T09:57:57;100782.23;;;28.22;48.38
36254;BME280;22291;52.250;21.228;2023-05-25T10:00:24;100788.72;;;28.27;46.97
36254;BME280;22291;52.250;21.228;2023-05-25T10:02:51;100794.70;;;28.10;46.60
36254;BME280;22291;52.250;21.228;2023-05-25T10:05:20;100795.25;;;28.28;46.46
36254;BME280;22291;52.250;21.228;2023-05-25T10:07:49;100797.20;;;28.43;46.30
36254;BME280;22291;52.250;21.228;2023-05-25T10:10:18;100790.81;;;28.85;45.66
36254;BME280;22291;52.250;21.228;2023-05-25T10:12:47;100791.02;;;28.98;43.94
36254;BME280;22291;52.250;21.228;2023-05-25T10:15:17;100784.41;;;29.12;44.40
36254;BME280;22291;52.250;21.228;2023-05-25T10:17:51;100788.41;;;29.55;42.95
36254;BME280;22291;52.250;21.228;2023-05-25T10:20:21;100778.22;;;29.36;42.26
36254;BME280;22291;52.250;21.228;2023-05-25T10:23:08;100783.98;;;29.37;42.43
36254;BME280;22291;52.250;21.228;2023-05-25T10:25:43;100783.92;;;29.05;41.64
36254;BME280;22291;52.250;21.228;2023-05-25T10:28:35;100789.48;;;28.82;41.64
36254;BME280;22291;52.250;21.228;2023-05-25T10:31:02;100795.39;;;28.60;42.04
36254;BME280;22291;52.250;21.228;2023-05-25T10:33:30;100787.97;;;28.07;41.72
36254;BME280;22291;52.250;21.228;2023-05-25T10:35:58;100783.70;;;27.99;42.02
36254;BME280;22291;52.250;21.228;2023-05-25T10:38:25;100787.51;;;28.12;42.60
36254;BME280;22291;52.250;21.228;2023-05-25T10:40:55;100784.45;;;28.19;42.42
36254;BME280;22291;52.250;21.228;2023-05-25T10:43:22;100782.34;;;28.57;43.37
36254;BME280;22291;52.250;21.228;2023-05-25T10:45:48;100779.13;;;28.94;41.50
36254;BME280;22291;52.250;21.228;2023-05-25T10:48:15;100781.44;;;28.99;41.67
36254;BME280;22291;52.250;21.228;2023-05-25T10:50:41;100773.82;;;29.03;40.99
36254;BME280;22291;52.250;21.228;2023-05-25T10:53:13;100773.69;;;28.99;40.37
36254;BME280;22291;52.250;21.228;2023-05-25T10:55:47;100769.73;;;29.32;41.82
36254;BME280;22291;52.250;21.228;2023-05-25T10:58:17;100775.05;;;29.86;41.02
36254;BME280;22291;52.250;21.228;2023-05-25T11:01:08;100772.06;;;30.42;40.74
36254;BME280;22291;52.250;21.228;2023-05-25T11:09:25;100775.91;;;31.85;38.16
36254;BME280;22291;52.250;21.228;2023-05-25T11:14:27;100774.08;;;31.87;36.82
36254;BME280;22291;52.250;21.228;2023-05-25T11:17:12;100784.45;;;31.06;35.89
36254;BME280;22291;52.250;21.228;2023-05-25T11:19:42;100785.70;;;29.91;36.11
36254;BME280;22291;52.250;21.228;2023-05-25T11:22:31;100776.97;;;28.94;37.14
36254;BME280;22291;52.250;21.228;2023-05-25T11:25:01;100781.53;;;28.14;37.71
36254;BME280;22291;52.250;21.228;2023-05-25T11:27:31;100776.18;;;27.05;38.98
36254;BME280;22291;52.250;21.228;2023-05-25T11:30:00;100772.72;;;26.34;39.96
36254;BME280;22291;52.250;21.228;2023-05-25T11:32:27;100246.08;;;22.37;41.06
36254;BME280;22291;52.250;21.228;2023-05-25T11:34:55;99992.61;;;20.32;42.08
36254;BME280;22291;52.250;21.228;2023-05-25T11:37:24;100777.88;;;24.71;43.15
36254;BME280;22291;52.250;21.228;2023-05-25T11:39:53;100783.54;;;24.40;44.20
36254;BME280;22291;52.250;21.228;2023-05-25T11:42:22;100791.16;;;24.12;44.81
36254;BME280;22291;52.250;21.228;2023-05-25T11:44:49;100788.10;;;23.85;45.31
36254;BME280;22291;52.250;21.228;2023-05-25T11:47:21;100789.37;;;23.71;46.56
36254;BME280;22291;52.250;21.228;2023-05-25T11:49:49;100787.06;;;23.45;46.64
36254;BME280;22291;52.250;21.228;2023-05-25T11:52:17;100787.30;;;23.22;47.12
36254;BME280;22291;52.250;21.228;2023-05-25T11:54:46;100787.80;;;23.07;47.66
36254;BME280;22291;52.250;21.228;2023-05-25T11:57:19;100782.96;;;22.97;47.97
36254;BME280;22291;52.250;21.228;2023-05-25T11:59:56;100787.45;;;22.92;48.41
36254;BME280;22291;52.250;21.228;2023-05-25T12:02:20;100783.34;;;22.96;48.96
36254;BME280;22291;52.250;21.228;2023-05-25T12:04:57;100783.55;;;23.00;49.27
36254;BME280;22291;52.250;21.228;2023-05-25T12:07:45;100778.52;;;23.06;49.31
36254;BME280;22291;52.250;21.228;2023-05-25T12:10:14;100782.37;;;23.22;49.53
36254;BME280;22291;52.250;21.228;2023-05-25T12:12:44;100782.88;;;23.38;49.42
36254;BME280;22291;52.250;21.228;2023-05-25T12:15:15;100779.26;;;23.58;49.38
36254;BME280;22291;52.250;21.228;2023-05-25T12:17:44;100777.05;;;23.85;49.68
36254;BME280;22291;52.250;21.228;2023-05-25T12:20:13;100773.26;;;24.33;49.21
36254;BME280;22291;52.250;21.228;2023-05-25T12:22:42;100765.81;;;24.73;48.80
36254;BME280;22291;52.250;21.228;2023-05-25T12:25:11;100760.06;;;25.15;48.23
36254;BME280;22291;52.250;21.228;2023-05-25T12:27:39;100757.05;;;25.47;47.67
36254;BME280;22291;52.250;21.228;2023-05-25T12:30:10;100752.74;;;25.97;47.41
36254;BME280;22291;52.250;21.228;2023-05-25T12:32:59;100751.55;;;26.61;47.04
36254;BME280;22291;52.250;21.228;2023-05-25T12:35:29;100748.16;;;26.88;44.51
36254;BME280;22291;52.250;21.228;2023-05-25T12:38:17;100750.14;;;27.10;44.90
36254;BME280;22291;52.250;21.228;2023-05-25T12:40:45;100749.33;;;27.51;44.21
36254;BME280;22291;52.250;21.228;2023-05-25T12:43:13;100750.56;;;27.66;43.15
36254;BME280;22291;52.250;21.228;2023-05-25T12:45:43;100745.56;;;27.53;42.88
36254;BME280;22291;52.250;21.228;2023-05-25T12:48:10;100740.98;;;27.55;43.04
36254;BME280;22291;52.250;21.228;2023-05-25T12:50:36;100739.16;;;27.72;43.27
36254;BME280;22291;52.250;21.228;2023-05-25T12:53:03;100736.94;;;27.90;43.54
36254;BME280;22291;52.250;21.228;2023-05-25T12:55:33;100728.01;;;28.22;42.88
36254;BME280;22291;52.250;21.228;2023-05-25T12:58:05;100716.11;;;28.45;42.54
36254;BME280;22291;52.250;21.228;2023-05-25T13:00:35;100713.30;;;28.84;42.67
36254;BME280;22291;52.250;21.228;2023-05-25T13:03:04;100708.60;;;29.24;41.75